Terminal Aerodrome Forecast
Issued by NWS Charleston, WV

Current Version | Previous Version | Text Only | Print | Product List | Glossary Off
Versions: 1 2 3 4 5 6 7 8 9 10 11 12 13 14 15 16 17 18 19 20 21 22

000
FTUS41 KRLX 081100
TAFPKB
TAF
KPKB 081134Z 0812/0912 20006KT P6SM BKN050
     FM081500 21012G17KT P6SM VCTS BKN050CB
     FM081600 21015G23KT 5SM TSRA BR BKN040CB
     FM082200 25011G17KT 6SM TSRA BR BKN035CB
     FM090400 26007KT P6SM BKN035
     FM091000 VRB03KT 5SM BR BKN020
      AMD NOT SKED=

USA.gov is the U.S. government's official web portal to all federal, state and local government web resources and services.